Time;durP1;ratioP1;P1;durP2;ratioP2;P2;SDS_P1;SDS_P2;PMS_P1;PMS_P2;Temp;Humidity;BMP_temperature;BMP_pressure;BME280_temperature;BME280_humidity;BME280_pressure;Samples;Min_cycle;Max_cycle;Signal;HPM_P1;HPM_P2
2022/03/14 00:02:14;;;;;;;23.40;21.47;;;9.50;1.70;;;;;;4954473;28;20441;-71
2022/03/14 00:04:40;;;;;;;20.80;19.40;;;9.40;2.00;;;;;;4953645;29;20568;-71
2022/03/14 00:07:06;;;;;;;21.27;19.80;;;9.50;1.80;;;;;;4953673;28;20439;-71
2022/03/14 00:09:31;;;;;;;20.83;19.17;;;9.50;1.60;;;;;;4954103;28;20683;-71
2022/03/14 00:11:57;;;;;;;21.23;19.90;;;9.50;1.80;;;;;;4954076;28;20185;-71
2022/03/14 00:14:25;;;;;;;20.77;19.23;;;9.50;1.60;;;;;;4955618;29;20207;-71
2022/03/14 00:16:52;;;;;;;20.90;19.33;;;9.50;1.40;;;;;;4954937;28;20795;-70
2022/03/14 00:19:20;;;;;;;21.70;20.30;;;9.50;2.00;;;;;;4954052;28;20437;-71
2022/03/14 00:21:46;;;;;;;20.90;19.40;;;9.40;1.80;;;;;;4953740;29;20533;-71
2022/03/14 00:24:12;;;;;;;19.57;18.43;;;9.50;1.70;;;;;;4953973;29;20415;-71
2022/03/14 00:26:39;;;;;;;21.47;19.80;;;9.50;1.60;;;;;;4953852;28;20465;-70
2022/03/14 00:29:06;;;;;;;20.50;19.40;;;9.50;1.60;;;;;;4953841;29;20441;-70
2022/03/14 00:31:32;;;;;;;20.67;19.07;;;9.50;1.70;;;;;;4953771;28;20430;-71
2022/03/14 00:33:58;;;;;;;21.50;19.80;;;9.50;1.80;;;;;;4953785;28;20757;-70
2022/03/14 00:36:27;;;;;;;21.67;20.07;;;9.50;1.90;;;;;;4953411;29;20453;-70
2022/03/14 00:38:53;;;;;;;22.40;20.77;;;9.50;1.50;;;;;;4953783;29;20612;-70
2022/03/14 00:41:20;;;;;;;19.17;18.17;;;9.30;1.90;;;;;;4953473;28;20421;-70
2022/03/14 00:43:46;;;;;;;21.87;20.33;;;9.30;2.10;;;;;;4953868;29;20414;-70
2022/03/14 00:46:16;;;;;;;23.30;21.63;;;9.40;1.70;;;;;;4953557;28;20423;-71
2022/03/14 00:48:42;;;;;;;20.03;18.93;;;9.60;1.20;;;;;;4953590;28;20453;-71
2022/03/14 00:51:07;;;;;;;21.53;19.83;;;9.60;1.60;;;;;;4953487;29;20430;-70
2022/03/14 00:53:34;;;;;;;23.23;21.53;;;9.60;1.20;;;;;;4954034;29;20184;-71
2022/03/14 00:56:01;;;;;;;21.30;19.83;;;9.70;1.50;;;;;;4953505;29;20210;-71
2022/03/14 00:58:28;;;;;;;21.80;20.20;;;9.60;1.80;;;;;;4953631;29;20884;-71
2022/03/14 01:00:54;;;;;;;22.97;21.00;;;9.60;1.90;;;;;;4952222;29;20761;-71
2022/03/14 01:03:19;;;;;;;21.13;19.90;;;9.70;2.00;;;;;;4953667;29;20465;-71
2022/03/14 01:05:45;;;;;;;21.73;20.23;;;9.70;2.30;;;;;;4953652;29;20191;-71
2022/03/14 01:08:11;;;;;;;23.10;21.60;;;9.70;3.00;;;;;;4968178;28;20219;-71
2022/03/14 01:10:37;;;;;;;23.53;21.53;;;9.70;4.30;;;;;;4953433;28;20229;-71
2022/03/14 01:13:03;;;;;;;24.07;22.10;;;9.80;5.80;;;;;;4953492;29;20424;-71
2022/03/14 01:15:29;;;;;;;25.27;23.10;;;9.90;5.90;;;;;;4953533;29;20203;-71
2022/03/14 01:17:56;;;;;;;26.20;24.07;;;10.00;6.20;;;;;;4953120;29;20898;-70
2022/03/14 01:20:21;;;;;;;25.70;23.40;;;10.00;7.10;;;;;;4953356;29;20427;-71
2022/03/14 01:22:47;;;;;;;25.30;23.50;;;10.00;7.50;;;;;;4953309;28;20836;-70
2022/03/14 01:25:13;;;;;;;23.40;21.50;;;10.10;8.90;;;;;;4953335;29;20195;-70
2022/03/14 01:27:38;;;;;;;26.50;24.00;;;10.10;9.80;;;;;;4953199;28;20930;-70
2022/03/14 01:30:04;;;;;;;23.43;21.60;;;10.20;10.60;;;;;;4953369;29;20234;-70
2022/03/14 01:32:30;;;;;;;27.70;24.97;;;10.20;11.80;;;;;;4953291;28;20183;-70
2022/03/14 01:34:56;;;;;;;26.83;24.53;;;10.30;11.80;;;;;;4953302;28;20473;-70
2022/03/14 01:37:21;;;;;;;24.93;23.00;;;10.30;12.90;;;;;;4953103;29;20207;-70
2022/03/14 01:39:47;;;;;;;28.10;25.47;;;10.30;13.10;;;;;;4955548;28;20234;-71
2022/03/14 01:42:19;;;;;;;24.97;23.03;;;10.30;13.30;;;;;;4957088;29;20427;-71
2022/03/14 01:44:47;;;;;;;25.90;23.60;;;10.40;14.30;;;;;;4956756;29;20198;-71
2022/03/14 01:47:16;;;;;;;25.30;23.30;;;10.30;14.50;;;;;;4952167;29;20456;-71
2022/03/14 01:49:46;;;;;;;26.17;23.93;;;10.40;14.90;;;;;;4944915;29;20550;-71
2022/03/14 01:52:13;;;;;;;25.17;23.03;;;10.40;15.20;;;;;;4956763;28;20536;-71
2022/03/14 01:54:40;;;;;;;26.07;23.77;;;10.40;15.80;;;;;;4956383;29;20552;-71
2022/03/14 01:57:05;;;;;;;26.70;24.30;;;10.40;15.90;;;;;;4956463;28;20458;-71
2022/03/14 01:59:32;;;;;;;25.13;23.07;;;10.40;16.50;;;;;;4955020;29;20860;-70
2022/03/14 02:01:57;;;;;;;23.00;21.10;;;10.40;17.00;;;;;;4971381;28;20186;-71
2022/03/14 02:04:23;;;;;;;24.77;22.50;;;10.40;17.10;;;;;;4956346;29;20422;-70
2022/03/14 02:06:52;;;;;;;23.47;21.47;;;10.40;17.40;;;;;;4936969;29;20557;-71
2022/03/14 02:09:18;;;;;;;25.20;22.73;;;10.50;18.00;;;;;;4940787;29;20303;-71
2022/03/14 02:11:56;;;;;;;20.20;19.00;;;10.50;18.30;;;;;;4955203;29;20419;-70
2022/03/14 02:14:23;;;;;;;20.20;18.73;;;10.50;18.70;;;;;;4956196;29;20747;-71
2022/03/14 02:16:49;;;;;;;20.17;18.47;;;10.50;18.70;;;;;;4955987;28;20414;-71
2022/03/14 02:19:15;;;;;;;17.30;16.10;;;10.50;19.50;;;;;;4955951;29;20505;-71
2022/03/14 02:21:41;;;;;;;16.37;15.30;;;10.40;20.70;;;;;;4956156;28;20413;-70
2022/03/14 02:24:06;;;;;;;16.30;15.00;;;10.40;21.30;;;;;;4956214;29;20508;-71
2022/03/14 02:26:39;;;;;;;16.50;15.33;;;10.30;22.80;;;;;;4956781;29;20184;-68
2022/03/14 02:29:05;;;;;;;15.40;14.40;;;10.20;22.70;;;;;;4955888;28;20201;-71
2022/03/14 02:31:30;;;;;;;13.97;12.97;;;10.20;22.80;;;;;;4955990;29;20441;-71
2022/03/14 02:33:56;;;;;;;12.40;11.70;;;10.10;23.30;;;;;;4956076;29;20415;-71
2022/03/14 02:36:21;;;;;;;11.33;10.63;;;10.00;23.80;;;;;;4955784;29;20758;-70
2022/03/14 02:38:47;;;;;;;10.47;9.97;;;9.90;24.60;;;;;;4955798;29;20201;-70
2022/03/14 02:41:13;;;;;;;10.67;10.17;;;9.90;25.00;;;;;;4956090;28;20184;-70
2022/03/14 02:43:39;;;;;;;9.90;9.50;;;9.80;24.60;;;;;;4957010;29;20186;-70
2022/03/14 02:46:04;;;;;;;8.43;8.07;;;9.70;24.80;;;;;;4956258;28;20511;-70
2022/03/14 02:48:30;;;;;;;8.13;7.83;;;9.70;25.30;;;;;;4955587;29;20441;-70
2022/03/14 02:50:56;;;;;;;8.67;8.27;;;9.70;25.50;;;;;;4954798;28;20234;-70
2022/03/14 02:53:22;;;;;;;7.90;7.60;;;9.50;26.40;;;;;;4955441;28;20415;-70
2022/03/14 02:55:48;;;;;;;8.40;7.90;;;9.50;26.30;;;;;;4955460;28;20203;-70
2022/03/14 02:58:14;;;;;;;7.73;7.43;;;9.50;27.10;;;;;;4954941;28;21001;-70
2022/03/14 03:00:39;;;;;;;8.07;7.77;;;9.50;26.90;;;;;;4955263;28;20452;-70
2022/03/14 03:03:06;;;;;;;8.80;8.30;;;9.50;26.80;;;;;;4953769;28;20186;-70
2022/03/14 03:05:36;;;;;;;8.80;8.40;;;9.50;26.90;;;;;;4955546;29;20201;-70
2022/03/14 03:08:03;;;;;;;8.20;7.90;;;9.50;27.70;;;;;;4954654;28;20815;-71
2022/03/14 03:10:29;;;;;;;8.07;7.77;;;9.50;27.20;;;;;;4955276;28;20537;-70
2022/03/14 03:12:55;;;;;;;8.47;8.17;;;9.40;27.10;;;;;;4955061;29;20440;-70
2022/03/14 03:15:22;;;;;;;8.37;8.07;;;9.40;27.10;;;;;;4954980;28;20458;-70
2022/03/14 03:17:47;;;;;;;8.20;7.90;;;9.40;27.10;;;;;;4954586;28;20769;-70
2022/03/14 03:20:14;;;;;;;7.77;7.47;;;9.50;27.30;;;;;;4954881;28;20505;-70
2022/03/14 03:22:40;;;;;;;8.30;8.00;;;9.50;27.10;;;;;;4954461;28;20179;-70
2022/03/14 03:25:06;;;;;;;8.00;7.70;;;9.40;27.40;;;;;;4954857;29;20417;-70
2022/03/14 03:27:32;;;;;;;8.07;7.77;;;9.40;27.10;;;;;;4954655;29;20774;-70
2022/03/14 03:29:59;;;;;;;8.10;7.80;;;9.40;27.70;;;;;;4954801;28;20462;-70
2022/03/14 03:32:24;;;;;;;8.37;8.07;;;9.40;27.10;;;;;;4954994;28;20210;-70
2022/03/14 03:34:51;;;;;;;7.40;7.10;;;9.30;27.30;;;;;;4954644;29;20481;-70
2022/03/14 03:37:16;;;;;;;7.60;7.30;;;9.20;28.40;;;;;;4954771;28;20181;-71
2022/03/14 03:39:42;;;;;;;7.90;7.60;;;9.10;28.30;;;;;;4954641;28;20450;-70
2022/03/14 03:42:08;;;;;;;7.63;7.33;;;9.10;28.70;;;;;;4955280;28;20180;-70
2022/03/14 03:44:34;;;;;;;7.90;7.60;;;9.20;28.40;;;;;;4954519;28;20650;-70
2022/03/14 03:47:00;;;;;;;7.73;7.43;;;9.30;28.90;;;;;;4949753;29;20198;-71
2022/03/14 03:49:26;;;;;;;7.50;7.20;;;9.20;27.90;;;;;;4935452;29;20494;-71
2022/03/14 03:51:52;;;;;;;8.50;8.10;;;9.20;27.70;;;;;;4935897;29;20430;-71
2022/03/14 03:54:17;;;;;;;7.47;7.17;;;9.30;27.30;;;;;;4952976;29;20189;-71
2022/03/14 03:56:43;;;;;;;7.90;7.30;;;9.30;27.70;;;;;;4954696;28;20175;-71
2022/03/14 03:59:08;;;;;;;7.87;7.57;;;9.40;27.50;;;;;;4954899;28;20237;-70
2022/03/14 04:01:35;;;;;;;7.77;7.47;;;9.30;27.10;;;;;;4953709;28;20186;-71
2022/03/14 04:04:01;;;;;;;7.70;7.40;;;9.30;27.50;;;;;;4954411;28;20183;-71
2022/03/14 04:06:30;;;;;;;7.60;7.30;;;9.20;27.40;;;;;;4954232;28;20948;-71
2022/03/14 04:09:00;;;;;;;8.90;8.50;;;9.30;27.50;;;;;;4954341;28;20471;-71
2022/03/14 04:11:26;;;;;;;7.60;7.20;;;9.20;28.00;;;;;;4954642;28;20415;-71
2022/03/14 04:13:58;;;;;;;6.60;6.40;;;9.00;28.70;;;;;;4954448;29;20445;-70
2022/03/14 04:16:24;;;;;;;8.00;7.33;;;8.80;30.00;;;;;;4953875;28;20475;-71
2022/03/14 04:18:50;;;;;;;7.87;7.57;;;8.90;29.30;;;;;;4954395;28;20433;-70
2022/03/14 04:21:16;;;;;;;8.13;7.63;;;8.90;29.00;;;;;;4953255;28;20465;-70
2022/03/14 04:23:42;;;;;;;8.50;7.23;;;9.00;29.40;;;;;;4954454;29;20178;-71
2022/03/14 04:26:09;;;;;;;7.63;7.00;;;9.00;29.30;;;;;;4954057;29;20421;-70
2022/03/14 04:28:36;;;;;;;6.73;6.43;;;9.10;29.00;;;;;;4953764;28;20820;-70
2022/03/14 04:31:04;;;;;;;7.60;7.30;;;9.10;29.50;;;;;;4954041;28;20501;-71
2022/03/14 04:33:30;;;;;;;7.17;6.87;;;9.10;29.50;;;;;;4953929;28;20421;-71
2022/03/14 04:35:57;;;;;;;7.67;7.27;;;9.00;29.30;;;;;;4952836;28;20544;-70
2022/03/14 04:38:24;;;;;;;7.57;7.27;;;9.00;29.20;;;;;;4953114;28;20452;-71
2022/03/14 04:40:49;;;;;;;7.30;6.90;;;9.10;29.30;;;;;;4953141;29;20452;-71
2022/03/14 04:43:15;;;;;;;7.40;7.10;;;9.20;28.70;;;;;;4953617;28;20429;-70
2022/03/14 04:45:41;;;;;;;7.40;7.10;;;9.00;29.30;;;;;;4953696;28;20256;-70
2022/03/14 04:48:07;;;;;;;7.57;7.17;;;8.90;29.70;;;;;;4953703;28;20727;-70
2022/03/14 04:50:36;;;;;;;6.97;6.67;;;8.90;29.90;;;;;;4953718;29;20557;-70
2022/03/14 04:53:02;;;;;;;6.57;6.27;;;8.90;29.80;;;;;;4942078;28;20441;-70
2022/03/14 04:55:28;;;;;;;6.73;6.43;;;9.00;29.60;;;;;;4937059;29;20557;-70
2022/03/14 04:57:54;;;;;;;7.40;7.10;;;8.90;29.90;;;;;;4952902;28;20469;-70
2022/03/14 05:00:22;;;;;;;6.70;6.40;;;8.90;29.50;;;;;;4953462;29;20528;-70
2022/03/14 05:02:48;;;;;;;5.90;5.70;;;9.00;29.40;;;;;;4953505;28;20410;-70
2022/03/14 05:05:14;;;;;;;6.90;6.60;;;9.00;29.40;;;;;;4953470;29;20501;-70
2022/03/14 05:07:40;;;;;;;7.00;6.70;;;9.10;29.40;;;;;;4953459;28;20183;-71
2022/03/14 05:10:06;;;;;;;7.57;7.27;;;9.10;28.70;;;;;;4954437;28;20210;-71
2022/03/14 05:12:34;;;;;;;6.53;6.23;;;9.10;28.40;;;;;;4952417;28;20421;-70
2022/03/14 05:15:00;;;;;;;6.80;6.50;;;9.10;28.60;;;;;;4956016;29;20470;-71
2022/03/14 05:17:26;;;;;;;7.20;6.90;;;9.00;28.90;;;;;;4957128;28;20421;-71
2022/03/14 05:19:51;;;;;;;7.13;6.73;;;9.00;28.50;;;;;;4957120;28;20441;-71
2022/03/14 05:22:18;;;;;;;7.47;7.17;;;9.00;28.40;;;;;;4957082;28;20191;-70
2022/03/14 05:24:44;;;;;;;6.77;6.47;;;9.00;28.50;;;;;;4956794;28;20174;-71
2022/03/14 05:27:10;;;;;;;7.27;6.97;;;9.00;28.90;;;;;;4956845;28;21006;-71
2022/03/14 05:29:36;;;;;;;7.43;7.13;;;9.00;28.70;;;;;;4955465;29;20445;-71
2022/03/14 05:32:01;;;;;;;6.90;6.60;;;9.00;29.30;;;;;;4956991;29;20320;-71
2022/03/14 05:34:27;;;;;;;7.13;6.83;;;9.00;28.90;;;;;;4956712;29;20206;-70
2022/03/14 05:36:52;;;;;;;7.20;6.90;;;9.00;28.70;;;;;;4956260;29;20197;-71
2022/03/14 05:39:18;;;;;;;7.97;7.60;;;9.00;28.70;;;;;;4956626;28;20680;-71
2022/03/14 05:41:43;;;;;;;7.47;7.17;;;9.00;28.70;;;;;;4956388;28;20185;-71
2022/03/14 05:44:09;;;;;;;7.40;7.10;;;8.90;28.80;;;;;;4956808;28;20543;-70
2022/03/14 05:46:35;;;;;;;7.30;7.00;;;9.00;28.50;;;;;;4956235;28;20186;-71
2022/03/14 05:49:00;;;;;;;7.57;7.17;;;9.00;28.20;;;;;;4956568;28;20208;-70
2022/03/14 05:51:26;;;;;;;7.43;7.13;;;9.00;28.30;;;;;;4956559;28;20178;-71
2022/03/14 05:53:52;;;;;;;7.20;6.90;;;8.90;28.10;;;;;;4957077;28;20166;-71
2022/03/14 05:56:18;;;;;;;7.63;7.33;;;9.00;28.20;;;;;;4956278;28;20682;-70
2022/03/14 05:58:43;;;;;;;7.60;7.20;;;9.00;27.90;;;;;;4956122;28;20692;-69
2022/03/14 06:01:10;;;;;;;8.03;7.73;;;9.00;27.70;;;;;;4956040;28;20192;-71
2022/03/14 06:03:36;;;;;;;7.57;7.27;;;9.10;27.60;;;;;;4956451;28;20170;-72
2022/03/14 06:06:02;;;;;;;7.37;7.07;;;9.10;26.90;;;;;;4956207;28;20906;-71
2022/03/14 06:08:28;;;;;;;8.20;7.90;;;9.10;26.90;;;;;;4955724;28;20429;-71
2022/03/14 06:10:55;;;;;;;7.87;7.57;;;9.10;26.90;;;;;;4956229;28;20425;-72
2022/03/14 06:13:21;;;;;;;8.23;7.73;;;9.20;26.70;;;;;;4955666;28;20417;-72
2022/03/14 06:15:47;;;;;;;8.17;7.77;;;9.10;26.30;;;;;;4954885;29;20485;-72
2022/03/14 06:18:14;;;;;;;8.20;7.80;;;9.10;25.70;;;;;;4955787;28;20433;-72
2022/03/14 06:20:39;;;;;;;7.60;7.30;;;9.10;25.60;;;;;;4956391;28;20168;-70
2022/03/14 06:23:05;;;;;;;7.70;7.40;;;9.20;25.90;;;;;;4955917;28;20420;-73
2022/03/14 06:25:31;;;;;;;7.37;7.07;;;9.20;25.80;;;;;;4955887;28;20208;-73
2022/03/14 06:27:57;;;;;;;8.00;7.60;;;9.30;25.60;;;;;;4955597;28;20202;-70
2022/03/14 06:30:23;;;;;;;8.60;8.20;;;9.20;25.40;;;;;;4956000;28;20193;-69
2022/03/14 06:32:49;;;;;;;8.63;8.33;;;9.20;25.40;;;;;;4956026;28;20422;-69
2022/03/14 06:35:17;;;;;;;8.60;8.30;;;9.20;24.90;;;;;;4955738;28;20461;-70
2022/03/14 06:37:43;;;;;;;8.90;8.60;;;9.30;25.20;;;;;;4955798;28;20450;-69
2022/03/14 06:40:09;;;;;;;8.90;8.50;;;9.40;24.40;;;;;;4955861;28;20867;-70
2022/03/14 06:42:39;;;;;;;9.23;8.83;;;9.40;24.50;;;;;;4954556;28;20455;-70
2022/03/14 06:45:05;;;;;;;9.27;8.97;;;9.50;24.30;;;;;;4956203;28;20932;-70
2022/03/14 06:47:32;;;;;;;9.83;9.40;;;9.60;24.00;;;;;;4947195;29;20543;-69
2022/03/14 06:49:58;;;;;;;9.97;9.37;;;9.70;24.00;;;;;;4950855;28;20864;-70
2022/03/14 06:52:23;;;;;;;8.97;8.67;;;9.70;23.10;;;;;;4967494;28;20421;-70
2022/03/14 06:54:49;;;;;;;9.57;9.27;;;9.70;23.10;;;;;;4936378;29;20464;-69
2022/03/14 06:57:15;;;;;;;8.53;8.23;;;9.70;23.50;;;;;;4936824;29;20630;-70
2022/03/14 06:59:40;;;;;;;9.27;8.97;;;9.70;23.40;;;;;;4942637;29;20222;-70
2022/03/14 07:02:07;;;;;;;8.67;8.37;;;9.70;23.50;;;;;;4955604;28;20554;-70
2022/03/14 07:04:34;;;;;;;9.07;8.77;;;9.60;23.70;;;;;;4955431;29;20548;-70
2022/03/14 07:07:03;;;;;;;8.87;8.57;;;9.60;24.00;;;;;;4955235;28;20840;-70
2022/03/14 07:09:30;;;;;;;9.50;9.20;;;9.70;23.90;;;;;;4954379;28;20470;-70
2022/03/14 07:11:56;;;;;;;9.30;9.00;;;9.80;23.20;;;;;;4954972;28;20484;-70
2022/03/14 07:14:22;;;;;;;9.87;9.47;;;9.80;23.20;;;;;;4953827;28;20932;-69
2022/03/14 07:16:49;;;;;;;9.50;9.20;;;9.90;23.00;;;;;;4955423;28;20182;-68
2022/03/14 07:19:15;;;;;;;9.27;8.87;;;10.00;22.60;;;;;;4955218;28;20516;-69
2022/03/14 07:21:41;;;;;;;9.90;9.50;;;9.90;22.90;;;;;;4955858;28;20512;-69
2022/03/14 07:24:07;;;;;;;10.60;10.20;;;10.00;22.10;;;;;;4954717;28;20455;-69
2022/03/14 07:26:33;;;;;;;9.80;9.40;;;10.10;21.90;;;;;;4954827;29;20469;-69
2022/03/14 07:28:58;;;;;;;10.40;10.00;;;10.10;21.90;;;;;;4955032;28;20209;-69
2022/03/14 07:31:24;;;;;;;11.40;11.00;;;10.20;22.00;;;;;;4954875;28;20176;-69
2022/03/14 07:33:50;;;;;;;9.93;9.53;;;10.20;21.50;;;;;;4955140;28;20205;-68
2022/03/14 07:36:16;;;;;;;10.67;10.17;;;10.30;21.30;;;;;;4954167;28;20475;-68
2022/03/14 07:38:42;;;;;;;10.60;10.20;;;10.40;21.10;;;;;;4951388;28;20460;-68
2022/03/14 07:41:11;;;;;;;10.80;10.40;;;10.40;20.50;;;;;;4951003;28;20434;-69
2022/03/14 07:43:40;;;;;;;10.50;10.10;;;10.40;20.50;;;;;;4954167;28;20557;-68
2022/03/14 07:46:06;;;;;;;11.03;10.63;;;10.50;20.40;;;;;;4953219;29;20949;-68
2022/03/14 07:48:32;;;;;;;10.77;10.37;;;10.60;20.20;;;;;;4953293;29;20452;-69
2022/03/14 07:50:58;;;;;;;10.87;10.47;;;10.70;20.20;;;;;;4954608;28;20838;-69
2022/03/14 07:53:25;;;;;;;10.67;10.27;;;10.70;19.40;;;;;;4954204;28;20184;-70
2022/03/14 07:55:51;;;;;;;11.07;10.57;;;10.90;19.40;;;;;;4954500;29;20684;-68
2022/03/14 07:58:17;;;;;;;11.10;10.70;;;11.00;19.00;;;;;;4952522;29;20485;-70
2022/03/14 08:00:42;;;;;;;11.03;10.63;;;11.00;19.00;;;;;;4953388;29;20444;-70
2022/03/14 08:03:08;;;;;;;11.33;10.83;;;11.00;18.50;;;;;;4953645;29;20192;-71
2022/03/14 08:05:33;;;;;;;10.77;10.33;;;10.80;18.90;;;;;;4954449;28;20630;-71
2022/03/14 08:08:00;;;;;;;11.40;11.00;;;11.10;19.70;;;;;;4953618;28;20208;-70
2022/03/14 08:10:26;;;;;;;11.40;11.00;;;11.50;19.40;;;;;;4952133;29;20207;-71
2022/03/14 08:12:53;;;;;;;11.90;11.30;;;11.60;17.30;;;;;;4953816;28;20437;-71
2022/03/14 08:15:29;;;;;;;11.43;11.03;;;11.60;17.00;;;;;;4953957;29;20211;-71
2022/03/14 08:17:57;;;;;;;12.00;11.50;;;11.50;17.90;;;;;;4953155;28;20433;-69
2022/03/14 08:20:26;;;;;;;11.60;11.20;;;11.50;17.60;;;;;;4952646;29;20786;-68
2022/03/14 08:22:53;;;;;;;11.50;11.10;;;11.60;17.60;;;;;;4952081;29;20438;-68
2022/03/14 08:25:19;;;;;;;12.40;11.50;;;11.60;17.30;;;;;;4953922;28;20415;-68
2022/03/14 08:27:45;;;;;;;11.40;11.00;;;11.60;17.40;;;;;;4951667;29;20444;-68
2022/03/14 08:30:11;;;;;;;12.63;12.03;;;11.60;17.00;;;;;;4951924;29;20930;-68
2022/03/14 08:32:39;;;;;;;13.97;13.13;;;11.80;15.80;;;;;;4952928;28;20189;-69
2022/03/14 08:35:09;;;;;;;11.80;11.40;;;11.60;15.20;;;;;;4953170;29;20463;-68
2022/03/14 08:37:40;;;;;;;12.83;12.23;;;11.70;15.20;;;;;;4952749;29;20410;-68
2022/03/14 08:40:09;;;;;;;12.93;12.43;;;11.90;15.40;;;;;;4940151;28;20920;-69
2022/03/14 08:42:36;;;;;;;12.33;11.83;;;11.90;15.40;;;;;;4945454;28;20929;-68
2022/03/14 08:45:02;;;;;;;12.40;11.90;;;11.80;15.20;;;;;;4934163;29;20440;-68
2022/03/14 08:47:28;;;;;;;12.53;11.73;;;11.90;15.40;;;;;;4948409;28;20933;-67
2022/03/14 08:49:54;;;;;;;13.30;12.80;;;12.10;13.90;;;;;;4955726;28;20453;-69
2022/03/14 08:52:19;;;;;;;12.00;11.60;;;12.30;13.30;;;;;;4956635;28;20182;-69
2022/03/14 08:54:45;;;;;;;11.70;11.30;;;12.20;13.20;;;;;;4957444;28;20205;-69
2022/03/14 08:57:11;;;;;;;12.60;12.10;;;12.40;13.10;;;;;;4956707;29;20179;-69
2022/03/14 08:59:36;;;;;;;11.67;11.27;;;12.40;12.40;;;;;;4955933;29;20236;-69
2022/03/14 09:02:02;;;;;;;13.30;12.80;;;12.50;12.20;;;;;;4957427;28;20823;-69
2022/03/14 09:04:28;;;;;;;12.60;12.20;;;12.60;12.60;;;;;;4957255;28;20279;-69
2022/03/14 09:06:54;;;;;;;12.43;11.93;;;12.60;12.50;;;;;;4957218;28;20174;-69
2022/03/14 09:09:19;;;;;;;11.90;11.50;;;12.50;11.90;;;;;;4957101;29;20672;-69
2022/03/14 09:11:45;;;;;;;12.80;12.30;;;12.30;13.30;;;;;;4956237;29;20558;-69
2022/03/14 09:14:11;;;;;;;12.53;12.10;;;12.40;12.50;;;;;;4957164;29;20252;-69
2022/03/14 09:16:37;;;;;;;12.03;11.53;;;12.50;13.00;;;;;;4956565;29;20469;-72
2022/03/14 09:19:03;;;;;;;13.07;12.57;;;12.80;12.70;;;;;;4957272;29;20484;-71
2022/03/14 09:21:30;;;;;;;12.50;12.10;;;12.90;12.30;;;;;;4943375;28;20442;-71
2022/03/14 09:23:56;;;;;;;12.30;11.90;;;13.10;11.80;;;;;;4956632;28;20437;-70
2022/03/14 09:26:21;;;;;;;13.53;13.00;;;13.00;11.80;;;;;;4955474;29;20429;-69
2022/03/14 09:28:49;;;;;;;12.90;12.40;;;13.20;11.30;;;;;;4956795;28;20491;-71
2022/03/14 09:31:14;;;;;;;14.27;13.57;;;13.10;10.90;;;;;;4957135;28;20174;-71
2022/03/14 09:33:40;;;;;;;15.27;14.40;;;12.90;10.30;;;;;;4956896;29;20799;-70
2022/03/14 09:36:06;;;;;;;13.03;12.53;;;12.60;10.30;;;;;;4957101;29;20337;-70
2022/03/14 09:38:32;;;;;;;13.03;12.50;;;12.40;11.30;;;;;;4956566;28;20321;-70
2022/03/14 09:41:03;;;;;;;12.90;12.40;;;12.30;11.30;;;;;;4956972;28;20529;-70
2022/03/14 09:43:37;;;;;;;13.03;12.53;;;12.20;11.20;;;;;;4957026;28;20176;-71
2022/03/14 09:46:05;;;;;;;12.70;12.23;;;12.00;12.10;;;;;;4956946;29;20472;-71
2022/03/14 09:48:36;;;;;;;12.00;11.60;;;12.00;11.80;;;;;;4956694;28;20816;-69
2022/03/14 09:51:03;;;;;;;12.50;12.00;;;12.10;11.80;;;;;;4957050;29;20495;-68
2022/03/14 09:53:30;;;;;;;12.40;12.00;;;12.10;12.20;;;;;;4957035;28;20503;-69
2022/03/14 09:55:56;;;;;;;12.30;11.90;;;12.20;11.20;;;;;;4956511;29;20508;-70
2022/03/14 09:58:22;;;;;;;13.20;12.70;;;12.40;11.30;;;;;;4951666;29;20552;-70
2022/03/14 10:00:49;;;;;;;13.80;13.30;;;12.50;11.40;;;;;;4952867;28;20500;-71
2022/03/14 10:03:16;;;;;;;12.57;12.07;;;12.40;10.40;;;;;;4952501;28;20519;-70
2022/03/14 10:05:44;;;;;;;12.37;11.97;;;12.50;10.70;;;;;;4952637;28;20426;-70
2022/03/14 10:08:10;;;;;;;12.20;11.80;;;12.40;11.20;;;;;;4952790;28;20520;-72
2022/03/14 10:10:39;;;;;;;12.90;12.40;;;12.60;10.70;;;;;;4952124;28;20447;-72
2022/03/14 10:13:06;;;;;;;13.73;12.90;;;12.70;10.70;;;;;;4952449;28;20442;-71
2022/03/14 10:15:35;;;;;;;13.20;12.70;;;12.70;11.50;;;;;;4952994;28;20847;-71
2022/03/14 10:18:10;;;;;;;12.77;12.27;;;12.60;10.00;;;;;;4952558;29;20888;-71
2022/03/14 10:20:36;;;;;;;13.20;12.70;;;12.70;11.20;;;;;;4952765;29;20435;-72
2022/03/14 10:23:01;;;;;;;12.83;12.33;;;12.70;11.10;;;;;;4951832;28;20409;-72
2022/03/14 10:25:28;;;;;;;13.80;12.83;;;12.50;10.50;;;;;;4952689;29;20429;-70
2022/03/14 10:27:55;;;;;;;13.13;12.63;;;12.40;10.60;;;;;;4951720;29;20763;-71
2022/03/14 10:30:32;;;;;;;12.30;11.80;;;12.30;10.50;;;;;;4952064;29;20953;-72
2022/03/14 10:33:15;;;;;;;13.67;12.97;;;12.20;11.20;;;;;;4951857;29;20802;-72
2022/03/14 10:35:43;;;;;;;13.00;12.17;;;12.00;10.00;;;;;;4950890;29;20481;-70
2022/03/14 10:38:11;;;;;;;13.40;12.90;;;11.80;10.10;;;;;;4951451;28;20441;-71
2022/03/14 10:40:39;;;;;;;12.77;12.23;;;11.80;10.90;;;;;;4952432;29;20420;-70
2022/03/14 10:43:27;;;;;;;12.33;11.87;;;11.70;10.80;;;;;;4952108;29;20425;-71
2022/03/14 10:45:56;;;;;;;13.03;12.50;;;11.60;9.70;;;;;;4952179;29;20506;-71
2022/03/14 10:48:32;;;;;;;13.97;12.90;;;11.60;10.80;;;;;;4952239;29;20832;-71
2022/03/14 10:51:05;;;;;;;14.83;12.03;;;11.50;10.70;;;;;;4952340;29;20458;-70
2022/03/14 10:53:31;;;;;;;12.23;11.73;;;11.60;11.50;;;;;;4952010;28;20435;-71
2022/03/14 10:55:59;;;;;;;14.30;11.80;;;11.70;11.40;;;;;;4951366;28;20510;-70
2022/03/14 10:58:30;;;;;;;13.10;12.40;;;11.80;10.90;;;;;;4950440;29;20548;-71
2022/03/14 11:00:58;;;;;;;13.70;12.40;;;11.80;10.90;;;;;;4954916;29;20787;-71
2022/03/14 11:03:28;;;;;;;13.27;12.77;;;11.90;10.80;;;;;;4955511;29;20445;-72
2022/03/14 11:05:58;;;;;;;13.13;12.53;;;11.90;9.60;;;;;;4955755;28;20421;-72
2022/03/14 11:08:29;;;;;;;12.60;12.20;;;12.00;10.30;;;;;;4955970;28;20970;-70
2022/03/14 11:10:55;;;;;;;13.03;12.40;;;12.10;9.50;;;;;;4954432;28;20422;-70
2022/03/14 11:13:21;;;;;;;12.50;12.03;;;12.10;9.60;;;;;;4955028;28;20408;-70
2022/03/14 11:15:47;;;;;;;12.50;12.00;;;12.30;9.00;;;;;;4954890;29;20564;-70
2022/03/14 11:18:13;;;;;;;12.30;11.90;;;12.40;8.90;;;;;;4955118;29;20520;-70
2022/03/14 11:20:39;;;;;;;12.60;12.07;;;12.40;9.20;;;;;;4955252;28;20312;-70
2022/03/14 11:23:06;;;;;;;12.47;11.97;;;12.60;7.50;;;;;;4955254;29;20908;-71
2022/03/14 11:25:32;;;;;;;12.80;12.40;;;12.60;7.00;;;;;;4955085;29;20425;-70
2022/03/14 11:27:58;;;;;;;13.40;12.60;;;12.70;7.20;;;;;;4954548;29;20524;-70
2022/03/14 11:30:26;;;;;;;13.50;13.00;;;12.90;6.70;;;;;;4954836;29;20483;-68
2022/03/14 11:32:52;;;;;;;12.80;12.30;;;12.80;6.10;;;;;;4954907;29;20468;-69
2022/03/14 11:35:18;;;;;;;12.83;12.33;;;12.80;7.60;;;;;;4954583;28;20461;-69
2022/03/14 11:37:45;;;;;;;12.97;12.47;;;13.00;7.30;;;;;;4954506;28;20422;-69
2022/03/14 11:40:13;;;;;;;12.37;11.70;;;13.10;6.10;;;;;;4955642;28;20468;-71
2022/03/14 11:42:39;;;;;;;13.47;12.97;;;13.10;5.80;;;;;;4955194;29;20918;-68
2022/03/14 11:45:06;;;;;;;13.60;13.00;;;13.20;5.60;;;;;;4954327;29;20418;-68
2022/03/14 11:47:33;;;;;;;12.70;12.10;;;13.30;5.50;;;;;;4953291;29;20265;-69
2022/03/14 11:50:00;;;;;;;13.37;12.87;;;13.30;4.60;;;;;;4953098;29;20450;-69
2022/03/14 11:52:39;;;;;;;14.33;13.60;;;13.40;3.70;;;;;;4954744;28;20448;-68
2022/03/14 11:55:17;;;;;;;13.50;13.00;;;13.40;3.50;;;;;;4954460;28;20461;-70
2022/03/14 11:57:44;;;;;;;14.23;13.63;;;13.50;4.70;;;;;;4953171;29;20762;-69
2022/03/14 12:00:22;;;;;;;12.87;12.37;;;13.50;4.60;;;;;;4954309;28;20421;-68
2022/03/14 12:02:53;;;;;;;13.27;12.77;;;13.60;4.40;;;;;;4954337;29;20410;-69
2022/03/14 12:05:31;;;;;;;13.80;13.30;;;13.70;3.90;;;;;;4952926;29;20425;-68
2022/03/14 12:07:57;;;;;;;13.63;13.03;;;13.70;4.10;;;;;;4952755;29;20449;-68
2022/03/14 12:10:31;;;;;;;13.30;12.80;;;13.80;3.30;;;;;;4954184;29;20440;-69
2022/03/14 12:13:01;;;;;;;15.20;14.27;;;13.80;3.70;;;;;;4954209;28;20492;-69
2022/03/14 12:15:42;;;;;;;13.37;12.87;;;13.90;4.30;;;;;;4954120;28;20573;-68
2022/03/14 12:18:38;;;;;;;13.90;13.40;;;13.90;3.90;;;;;;4954416;29;20516;-68
2022/03/14 12:21:42;;;;;;;14.07;13.47;;;13.90;3.40;;;;;;4950812;28;20582;-69
2022/03/14 12:24:07;;;;;;;13.60;13.10;;;14.00;3.40;;;;;;4952446;28;20436;-68
2022/03/14 12:26:34;;;;;;;14.07;13.57;;;14.00;2.60;;;;;;4953760;28;20415;-69
2022/03/14 12:29:35;;;;;;;13.57;13.07;;;14.10;3.50;;;;;;4953829;29;20196;-69
2022/03/14 12:32:29;;;;;;;15.30;14.70;;;13.70;1.90;;;;;;4954055;28;20424;-68
2022/03/14 12:35:05;;;;;;;14.20;13.70;;;13.90;2.90;;;;;;4954024;29;20458;-70
2022/03/14 12:37:40;;;;;;;14.33;13.83;;;14.00;3.40;;;;;;4954209;28;20402;-69
2022/03/14 12:40:07;;;;;;;15.00;14.40;;;14.00;2.60;;;;;;4952423;29;20417;-69
2022/03/14 12:42:41;;;;;;;14.60;13.90;;;13.90;2.00;;;;;;4953787;28;20448;-69